Terminal Aerodrome Forecast
Issued by NWS Charleston, WV

Home | Current Version | Previous Version | Text Only | Print | Product List | Glossary On
Versions: 1 2 3 4 5 6 7 8 9 10 11 12 13 14 15 16 17 18 19 20 21 22 23 24 25 26 27 28
000
FTUS41 KRLX 061735
TAFCRW
TAF
KCRW 061735Z 0618/0718 26004KT P6SM SHRA VCTS BKN015CB
     FM062000 26005KT P6SM VCTS BKN020CB
     FM062300 20005KT P6SM BKN035
     FM070200 18004KT 6SM BR BKN035
     FM070400 VRB03KT 3SM BR SCT035
     FM070800 VRB03KT 1SM BR SCT001 SCT060
     FM071200 21006KT 3SM BR SCT045
     FM071400 21008KT P6SM SCT045=

USA.gov is the U.S. government's official web portal to all federal, state and local government web resources and services.